Pablo León

Recruteur en chef - Levante
3 Avr 2027
Samedi
Processus

Personnalité

Adaptabilité (5) Ambition (18) Controverse (5) Loyauté (9) Pression (18) Professionnalisme (4) Sportivité (12) Tempérament (2)

Profil

Style d'entraînement Démocratique
Diplôme Continental B
Détermination 4
Gestion des joueurs 11
Motivation 4
Discipline 5
Satisfaction professionnelle
50%
Fatigue
0%
Rôle Recruteur en chef
Salaire 68.4K p/s
Contrat 14.03.2028

Performance

Comportement Normal
Efficacité de l'entraînement
17%
Développement des joueurs
30%
Prévention des blessures
65%
Mise en place tactique
20%

Événements récents

A voté contre une cible de transfert maintenant
A recommandé une cible de transfert maintenant
A participé à une réunion de recrutement maintenant
A voté contre une cible de transfert maintenant
A évalué un joueur maintenant
A évalué un joueur maintenant
A évalué un joueur maintenant
A évalué un joueur maintenant

Suivi en cours

176
Joueur Club Statut Capacité Confiance Observé Dernière observation Dernier vote
Iqraam Rayners Mamelodi Sundowns Actif 131 / 132 40% 3 02.04.2027 -
Håkon Evjen Bodo/Glimt Actif 111 / 129 40% 1 02.04.2027 -
Facundo Melivilo Adana Demirspor Actif 129 / 110 40% 1 02.04.2027 -
Anthony Lozano Santos Laguna Actif 136 / 122 40% 6 01.04.2027 -
Manuel Fischnaller Ravenna Actif 103 / 114 40% 1 01.04.2027 -
Duk Atlas Actif 116 / 117 40% 5 31.03.2027 -
Martín García Aldosivi Actif 76 / 101 40% 1 31.03.2027 -
Tiago Freitas Benfica Actif 97 / 117 40% 1 31.03.2027 -
Eduardo Fernandes Benfica Actif 104 / 112 40% 1 29.03.2027 -
Olívio Tomé Benfica Actif 99 / 112 40% 1 29.03.2027 -
João Teixeira Porto Actif 122 / 111 40% 1 28.03.2027 -
Matías Argüello Olimpia Actif 119 / 110 40% 1 28.03.2027 -
Ekain Orobengoa Real Sociedad Refusé 99 / 105 83% 2 / 2m 27.03.2027 Refuser
Darío Ramírez Real Sociedad Actif 100 / 97 83% 1 / 1m 27.03.2027 Observer
Job Ochieng Real Sociedad Refusé 112 / 108 83% 1 / 1m 27.03.2027 Refuser
Lander Astiazarán Real Sociedad Rapport prêt 107 / 112 83% 1 / 1m 27.03.2027 -
Gorka Gorosabel Real Sociedad Rapport prêt 109 / 114 83% 1 / 1m 27.03.2027 Refuser
Filippo Alinovi Real Sociedad Rapport prêt 70 / 81 83% 1 / 1m 27.03.2027 -
Ilja Ishkov Ural Actif 105 / 107 40% 1 27.03.2027 -
Joel Canchimbo Barranquilla Actif 115 / 110 40% 1 27.03.2027 -
Ludovic Ajorque Stade Brestois Actif 144 / 133 40% 2 25.03.2027 -
Shayne Lavery Cambridge United Actif 92 / 104 40% 2 25.03.2027 -
Vanja Dragojević Partizan Actif 102 / 117 40% 1 25.03.2027 -
Juan Pablo Arango Talleres Actif 83 / 102 40% 1 25.03.2027 -
Ángel Sepúlveda Guadalajara Actif 130 / 115 40% 3 23.03.2027 -
Carlton Morris Derby County Actif 116 / 119 40% 1 22.03.2027 -
Matty Stevens AFC Wimbledon Actif 105 / 105 40% 1 22.03.2027 -
Ricardo Marín Guadalajara Actif 138 / 120 40% 6 20.03.2027 -
Florián Monzón Atlas Actif 124 / 125 40% 6 20.03.2027 -
Pere Milla Espanyol Actif 131 / 140 40% 2 19.03.2027 -
Stephen Humphrys Bradford City Actif 99 / 110 40% 1 19.03.2027 -
Juanmi Getafe Actif 131 / 131 40% 1 18.03.2027 -
Roberto de la Rosa Monterrey Actif 113 / 128 40% 1 18.03.2027 -
Borna Knezović Casarano Actif 90 / 102 40% 1 18.03.2027 -
Bryan Caicedo Leones Actif 103 / 101 40% 1 18.03.2027 -
Joaquín Pereyra Estudiantes Actif 93 / 105 40% 1 17.03.2027 -
Dani Díaz Real Sociedad Actif 105 / 122 40% 1 17.03.2027 -
Óscar Plano Leganés Actif 134 / 133 40% 2 15.03.2027 -
Luciano Juba Bahia Actif 118 / 136 40% 3 14.03.2027 -
Andrés Gómez Vasco da Gama Actif 117 / 138 40% 1 14.03.2027 -
Mario Soberón Albacete Actif 115 / 115 40% 2 10.03.2027 -
Amín Molinas Libertad Actif 99 / 113 40% 1 10.03.2027 -
Gonçalo Moreira Benfica Actif 103 / 119 40% 1 10.03.2027 -
David Rincon Atletico Venezuela Actif 94 / 107 40% 2 09.03.2027 -
Diogo Guzmán Montevideo City Torque Actif 96 / 124 40% 1 09.03.2027 -
Paulinho Toluca Actif 151 / 129 40% 5 07.03.2027 -
Dani Gómez Zaragoza Actif 117 / 120 40% 1 07.03.2027 -
Sabil Hansen Randers Actif 105 / 114 40% 1 07.03.2027 -
Jordan Roberts Stevenage Actif 98 / 107 40% 1 05.03.2027 -
Everton Bala Levski Actif 138 / 128 40% 1 05.03.2027 -
Jon Bautista Eibar Actif 138 / 123 40% 2 04.03.2027 -
Lucas Di Yorio Santos Laguna Actif 121 / 117 40% 7 03.03.2027 -
Matěj Vydra Viktoria Plzen Actif 137 / 132 40% 1 03.03.2027 -
Peter Shalulile Mamelodi Sundowns Actif 138 / 128 40% 5 02.03.2027 -
Nikolay Komlichenko Lokomotiv Moscow Actif 133 / 125 40% 3 02.03.2027 -
Ignacio Perruzzi San Lorenzo Actif 119 / 132 40% 1 02.03.2027 -
André Miranda Porto Actif 106 / 100 40% 1 02.03.2027 -
Henry Martín Club America Actif 125 / 139 40% 6 28.02.2027 -
Ismael Díaz Leon Actif 120 / 128 40% 1 28.02.2027 -
Mousa Meunier KV Oostende Actif 114 / 122 40% 2 27.02.2027 -
Tamerlan Musaev CSKA Moscow Actif 120 / 119 40% 2 27.02.2027 -
Achraf Bencharki Al Ahly Actif 118 / 124 40% 3 26.02.2027 -
Luuk de Jong Porto Actif 149 / 142 40% 2 25.02.2027 -
Allahyar Sayyadmanesh Lech Actif 130 / 123 40% 1 25.02.2027 -
Rodrigo Aguirre Tigres Actif 112 / 122 40% 4 23.02.2027 -
Ante Budimir Osasuna Actif 148 / 146 40% 2 23.02.2027 -
Ozziel Herrera Tigres Actif 116 / 130 40% 5 22.02.2027 -
Haissem Hassan Bloemfontein Celtic Actif 129 / 130 40% 3 22.02.2027 -
Juan Manuel Boselli Krasnodar Actif 119 / 118 40% 1 22.02.2027 -
Lorenzo Insigne Sampdoria Actif 135 / 126 40% 1 21.02.2027 -
Ion Nicolăescu Maccabi Tel Aviv Actif 116 / 122 40% 1 21.02.2027 -
Jhojan Julio Queretaro Actif 144 / 119 40% 6 19.02.2027 -
Nicolás Ibáñez Cruz Azul Actif 136 / 134 40% 4 19.02.2027 -
Mohammed Bouldini Académico de Viseu Actif 123 / 121 40% 1 17.02.2027 -
Marcus Browne AFC Wimbledon Actif 119 / 104 40% 1 16.02.2027 -
Bojan Radulović Huddersfield Town Actif 120 / 117 40% 1 11.02.2027 -
Diber Cambindo Leon Actif 146 / 129 40% 4 10.02.2027 -
Mohamed Salah Trabzonspor Actif 166 / 174 40% 1 09.02.2027 -
Romelu Lukaku Fenerbahce Actif 170 / 163 40% 2 08.02.2027 -
Jhon Córdoba Krasnodar Actif 141 / 134 40% 1 08.02.2027 -
Chris Ramos Botafogo Actif 144 / 131 40% 1 07.02.2027 -
Sergi Enrich Huesca Actif 117 / 120 40% 1 06.02.2027 -
Diego Rossi Monterrey Actif 144 / 141 40% 4 05.02.2027 -
Oleh Ocheretko Shakhtar Actif 127 / 131 40% 5 05.02.2027 -
Michael Smith Mansfield Town Actif 121 / 106 40% 2 01.02.2027 -
Juan Fernando Garro Ankaragucu Actif 98 / 101 40% 1 30.01.2027 -
Jean-Pierre Nsame Pogon Perdu 123 / 118 40% 1 30.01.2027 -
Pedro Henrique Shakhtar Actif 139 / 128 40% 3 25.01.2027 -
Gabriel Bravo Westerlo Actif 93 / 104 40% 2 22.01.2027 -
Marco Pineda VfB Stuttgart Actif 157 / 140 40% 1 21.01.2027 -
Efraín Álvarez Guadalajara Actif 146 / 135 40% 3 20.01.2027 -
Alisson Safira Juventude Actif 123 / 115 40% 2 20.01.2027 -
Caio Alexandre Bahia Actif 122 / 140 40% 1 20.01.2027 -
Hugo Cuypers Monterrey Actif 140 / 130 40% 6 18.01.2027 -
Dani Tasende Córdoba Actif 107 / 120 44% 1 18.01.2027 -
Helinho Toluca Actif 112 / 123 40% 1 17.01.2027 -
Juan Dinenno Pumas UNAM Actif 118 / 127 40% 5 14.01.2027 -
Leonardo Castro Millonarios Perdu 137 / 125 40% 2 14.01.2027 -
Marc Cardona Andorra Actif 101 / 113 40% 1 13.01.2027 -
Marcel Ruiz Toluca Actif 140 / 141 66% 1 01.01.2027 Approuver
Mao Hosoya Corinthians Actif 134 / 135 67% 1 01.01.2027 Approuver
Israel Reyes Club America Perdu 137 / 137 68% 1 01.01.2027 -
Christian Carracedo Córdoba Actif 142 / 132 44% 1 01.01.2027 -
Gustavo Silva Juventude Actif 110 / 127 40% 1 31.12.2026 -
Jefry Zapata Once Caldas Actif 122 / 117 40% 2 30.12.2026 -
Talisca Fenerbahce Actif 153 / 144 40% 1 28.12.2026 -
Michael Barrios Once Caldas Actif 127 / 111 40% 4 27.12.2026 -
Christian Kouamé Aris Thessaloniki Actif 138 / 133 40% 1 26.12.2026 -
Marcelo Torres Gimnasia La Plata Actif 108 / 126 40% 2 24.12.2026 -
Christos Zafeiris Galatasaray Actif 135 / 141 40% 2 23.12.2026 -
Ignacio Ramírez Newell's Old Boys Actif 111 / 131 40% 1 19.12.2026 -
Luciano Pons Atletico Bucaramanga Actif 100 / 110 40% 2 13.12.2026 -
Edwuin Cetré Estudiantes Actif 146 / 130 40% 4 12.12.2026 -
Josh Windass Wrexham Actif 124 / 128 40% 1 12.12.2026 -
Joaquín Correa Estudiantes Actif 144 / 130 40% 2 11.12.2026 -
Emiliano Rigoni Belgrano Actif 132 / 116 40% 3 11.12.2026 -
Diego Valdés Vélez Actif 138 / 130 40% 3 10.12.2026 -
Nicolás Fernández Belgrano Actif 121 / 130 40% 1 10.12.2026 -
John Okoye Ebuka Ittihad Actif 126 / 109 40% 1 09.12.2026 -
Sebastián Villa Boca Juniors Actif 109 / 133 40% 3 08.12.2026 -
Marcus Holmgren Pedersen Olympiacos Actif 127 / 130 40% 1 06.12.2026 -
Ramiro Ruiz Rodríguez Atlético Tucumán Actif 123 / 124 40% 3 05.12.2026 -
Raúl Jiménez Wolverhampton Actif 133 / 133 40% 1 02.12.2026 -
Antoine Griezmann Orlando City Actif 136 / 151 40% 5 30.11.2026 -
Alexander Díaz Deportivo Riestra Actif 136 / 125 40% 3 29.11.2026 -
Antony Alonso Deportivo Riestra Actif 129 / 119 40% 2 24.11.2026 -
Héctor Hernández Gil Vicente Actif 135 / 123 40% 1 23.11.2026 -
Ramón Juárez Club America Actif 127 / 135 40% 1 23.11.2026 -
Jens Petter Hauge Bodo/Glimt Actif 123 / 133 40% 6 21.11.2026 -
Aiham Ousou Charleroi Actif 140 / 131 40% 1 20.11.2026 -
Tiago Djaló Besiktas Actif 138 / 138 40% 1 20.11.2026 -
Franco Fagúndez Estudiantes Actif 123 / 118 40% 1 18.11.2026 -
Alfredo Morelos Atletico Nacional Actif 125 / 121 40% 1 11.11.2026 -
Serge-Philippe Raux-Yao Rapid Wien Actif 131 / 130 40% 1 09.11.2026 -
Rafael Santos Borré River Plate Actif 135 / 137 40% 1 08.11.2026 -
Lucas Passerini Belgrano Actif 112 / 118 40% 2 04.11.2026 -
Francisco Fydriszewski Junior Actif 139 / 117 40% 1 01.11.2026 -
Matías Cóccaro Newell's Old Boys Actif 134 / 123 40% 1 30.10.2026 -
Álex Arce Independiente Rivadavia Actif 107 / 127 40% 1 26.10.2026 -
Andrey Estupiñán Millonarios Actif 138 / 125 40% 2 23.10.2026 -
Carles Gil New England Revolution Actif 145 / 130 40% 1 22.10.2026 -
Tomás Bolzicco Chaco For Ever Actif 105 / 104 40% 1 18.10.2026 -
Jáder Obrian Santa Fe Actif 112 / 113 40% 1 17.10.2026 -
David Barbona Defensa y Justicia Actif 143 / 126 40% 1 15.10.2026 -
Kota Tawaratsumida FC Tokyo Actif 128 / 137 40% 2 14.10.2026 -
Bruno Sepúlveda Banfield Actif 123 / 120 40% 2 12.10.2026 -
Sebastián Cáceres Club America Actif 141 / 139 40% 1 08.10.2026 -
Santiago González Tigre Actif 128 / 121 40% 1 08.10.2026 -
Jorge Obregón Deportivo Pasto Actif 128 / 108 40% 1 07.10.2026 -
Thiago Calone All Boys Actif 93 / 113 40% 1 04.10.2026 -
Favio Cabral Mitre Actif 137 / 113 40% 1 03.10.2026 -
Facundo Castro Nueva Chicago Actif 135 / 121 40% 1 28.09.2026 -
Abel Hernández Penarol Actif 148 / 118 40% 2 27.09.2026 -
Santiago Solari Racing Club Actif 131 / 125 40% 1 27.09.2026 -
Robert FC Copenhagen Actif 134 / 124 40% 1 23.09.2026 -
Alejandro Almaraz Nueva Chicago Actif 78 / 105 40% 1 23.09.2026 -
Tiziano Favotti Colón Actif 74 / 103 40% 2 20.09.2026 -
Jonathan Asp-Jensen Deportivo La Coruña Actif 112 / 124 40% 1 20.09.2026 -
Maximiliano Badur Morón Actif 117 / 114 40% 1 16.09.2026 -
Francisco Cuzzani Ferro Carril Oeste Actif 88 / 113 40% 1 16.09.2026 -
Juan Martín Lucero Universidad de Chile Actif 130 / 117 40% 2 14.09.2026 -
Matías Giménez Rojas Argentinos Juniors Actif 143 / 118 40% 1 14.09.2026 -
Tomás Conechny Racing Club Actif 131 / 116 40% 1 10.09.2026 -
Facundo Piozzi Rosario Central Actif 110 / 107 40% 1 09.09.2026 -
Bruno Nasta San Miguel Actif 122 / 125 40% 1 07.09.2026 -
Eliás Montiel Pachuca Actif 149 / 132 40% 1 05.09.2026 -
Dylan Gorosito Boca Juniors Actif 126 / 119 40% 1 05.09.2026 -
Luca Regiardo Newell's Old Boys Actif 110 / 113 40% 1 27.08.2026 -
Martín Pino Antalyaspor Actif 134 / 119 40% 1 25.08.2026 -
Kevin Gutiérrez Rosario Central Actif 86 / 92 40% 1 12.08.2026 -
Facundo Montiel Colegiales Actif 92 / 95 40% 1 12.08.2026 -
Federico Pereira Toluca Actif 135 / 135 68% 1 10.08.2026 Approuver
Tomás Molina Argentinos Juniors Actif 106 / 131 40% 1 09.08.2026 -
Adrián Martínez Racing Club Actif 142 / 125 40% 1 09.08.2026 -
Teo Rodríguez Pagano San Lorenzo Actif 133 / 123 40% 1 09.08.2026 -
Samuel Lucero Defensa y Justicia Actif 103 / 110 40% 1 09.08.2026 -